Adrian, North Dakota
Current Conditions -  °F | °C
As of 8:09 AM on Sunday 21 Dec 2014 (Local Time) from KJMS Reporting Station
Haze Haze  
Wind Chill: 16°   Ceiling: 200
Heat Index: 25°   Visibility: 0.75mi
Dew Point: 22°   Wind: 9mph
Humidity: 88%   Direction: 170°S
Pressure: 29.65"   Gusts: NA
Location:  46.6526°N, 98.6214°W
Report Text: KJMS 211409Z AUTO 17008KT 3/4SM BR VV002 M04/M06 A2965 RMK AO2 T10391056
Loading
Personal Weather Stations






























Interactive Weather Map New forecast layout! Learn more

10-Day Weather Forecast

Advertisements
Track Severe Weather on mobile